Time;durP1;ratioP1;P1;durP2;ratioP2;P2;SDS_P1;SDS_P2;PMS_P1;PMS_P2;Temp;Humidity;BMP_temperature;BMP_pressure;BME280_temperature;BME280_humidity;BME280_pressure;Samples;Min_cycle;Max_cycle;Signal;HPM_P1;HPM_P2
2023/03/09 00:00:10;;;;;;;3.97;1.70;;;;;;;18.57;49.32;98613.69;5092477;28;20103;-69
2023/03/09 00:02:36;;;;;;;3.80;1.55;;;;;;;18.57;49.56;98624.28;5092676;28;20081;-69
2023/03/09 00:05:02;;;;;;;3.97;1.60;;;;;;;18.57;49.51;98629.56;5092611;28;20028;-68
2023/03/09 00:07:30;;;;;;;3.30;1.63;;;;;;;18.57;49.62;98629.56;5092577;28;20020;-70
2023/03/09 00:09:56;;;;;;;3.33;1.48;;;;;;;18.57;49.41;98645.41;5092600;28;20032;-69
2023/03/09 00:12:22;;;;;;;3.70;1.40;;;;;;;18.58;49.46;98652.38;5091224;28;20027;-69
2023/03/09 00:14:53;;;;;;;3.13;1.30;;;;;;;18.57;49.28;98640.13;5091966;28;20051;-69
2023/03/09 00:17:19;;;;;;;4.00;1.70;;;;;;;18.58;49.58;98647.09;5091361;28;20127;-69
2023/03/09 00:19:44;;;;;;;2.20;1.20;;;;;;;18.59;49.31;98648.81;5092248;28;20043;-69
2023/03/09 00:22:10;;;;;;;3.35;1.58;;;;;;;18.58;49.37;98657.66;5092312;28;20118;-70
2023/03/09 00:24:35;;;;;;;3.63;1.67;;;;;;;18.58;49.24;98662.94;5092392;28;20073;-68
2023/03/09 00:27:02;;;;;;;4.63;1.58;;;;;;;18.58;49.63;98668.22;5092002;28;20028;-69
2023/03/09 00:29:29;;;;;;;4.53;1.70;;;;;;;18.56;49.31;98654.28;5092413;28;20032;-69
2023/03/09 00:31:56;;;;;;;3.42;1.35;;;;;;;18.56;49.50;98671.00;5090528;28;20024;-69
2023/03/09 00:34:22;;;;;;;3.92;1.40;;;;;;;18.56;49.37;98670.13;5090619;28;20043;-69
2023/03/09 00:36:48;;;;;;;4.30;1.42;;;;;;;18.56;49.39;98664.84;5091972;28;20074;-70
2023/03/09 00:39:15;;;;;;;2.20;1.20;;;;;;;18.55;49.40;98663.16;5092238;28;20415;-69
2023/03/09 00:41:42;;;;;;;4.65;1.35;;;;;;;18.55;49.58;98655.22;5090636;28;20028;-69
2023/03/09 00:44:08;;;;;;;3.45;1.42;;;;;;;18.56;49.54;98664.84;5092121;28;20032;-68
2023/03/09 00:46:35;;;;;;;2.75;1.40;;;;;;;18.55;49.65;98658.72;5090452;28;20012;-71
2023/03/09 00:49:03;;;;;;;2.72;1.30;;;;;;;18.54;49.57;98657.00;5092044;28;20045;-69
2023/03/09 00:51:28;;;;;;;2.28;1.08;;;;;;;18.54;49.16;98657.00;5091954;28;20061;-69
2023/03/09 00:53:55;;;;;;;2.53;1.27;;;;;;;18.54;49.11;98658.81;5091992;28;20079;-68
2023/03/09 00:56:25;;;;;;;2.40;1.23;;;;;;;18.55;49.48;98673.72;5091626;28;20081;-69
2023/03/09 00:58:51;;;;;;;3.88;1.40;;;;;;;18.54;49.32;98666.75;5091770;28;20016;-70
2023/03/09 01:01:17;;;;;;;2.20;1.15;;;;;;;18.54;49.41;98666.75;5091894;28;20035;-69
2023/03/09 01:03:43;;;;;;;2.42;1.20;;;;;;;18.55;49.59;98666.63;5091982;28;20028;-68
2023/03/09 01:06:09;;;;;;;4.65;1.30;;;;;;;18.55;49.22;98658.72;5092548;28;20081;-69
2023/03/09 01:08:34;;;;;;;3.45;1.30;;;;;;;18.54;49.57;98669.41;5096099;28;20036;-69
2023/03/09 01:11:00;;;;;;;3.95;1.40;;;;;;;18.54;49.34;98674.69;5095579;28;20024;-69
2023/03/09 01:13:26;;;;;;;2.45;1.10;;;;;;;18.53;49.53;98679.09;5094702;28;20032;-68
2023/03/09 01:15:52;;;;;;;3.45;1.35;;;;;;;18.52;49.34;98680.91;5095590;28;20077;-70
2023/03/09 01:18:18;;;;;;;2.38;1.25;;;;;;;18.51;49.18;98668.63;5095886;28;20028;-69
2023/03/09 01:20:43;;;;;;;4.28;1.42;;;;;;;18.51;49.41;98663.34;5095901;28;20030;-69
2023/03/09 01:23:09;;;;;;;3.75;1.60;;;;;;;18.55;49.23;98660.50;5095678;28;20032;-70
2023/03/09 01:25:34;;;;;;;2.78;1.40;;;;;;;18.53;49.24;98660.59;5095424;28;20062;-67
2023/03/09 01:27:59;;;;;;;2.35;1.15;;;;;;;18.53;49.41;98665.88;5094586;28;20120;-70
2023/03/09 01:30:25;;;;;;;3.20;1.33;;;;;;;18.51;49.43;98665.97;5095702;28;20364;-69
2023/03/09 01:32:50;;;;;;;3.17;1.13;;;;;;;18.51;49.21;98668.63;5095657;28;20468;-69
2023/03/09 01:35:16;;;;;;;2.17;0.93;;;;;;;18.51;49.39;98670.44;5095536;28;20168;-70
2023/03/09 01:37:41;;;;;;;3.58;1.20;;;;;;;18.51;49.34;98652.78;5095599;28;20467;-69
2023/03/09 01:40:09;;;;;;;2.22;1.15;;;;;;;18.50;49.43;98645.78;5095298;28;20043;-70
2023/03/09 01:42:35;;;;;;;2.28;1.10;;;;;;;18.52;49.27;98648.34;5095322;28;20609;-69
2023/03/09 01:45:18;;;;;;;3.33;1.08;;;;;;;18.51;49.29;98642.22;5095319;28;20024;-70
2023/03/09 01:47:45;;;;;;;2.92;1.30;;;;;;;18.49;49.37;98638.81;5095275;28;20020;-69
2023/03/09 01:50:11;;;;;;;1.48;0.95;;;;;;;18.49;49.58;98636.19;5095223;28;20036;-69
2023/03/09 01:52:38;;;;;;;2.63;1.23;;;;;;;18.49;49.32;98644.09;5095244;28;20024;-69
2023/03/09 01:55:12;;;;;;;2.80;1.40;;;;;;;18.48;49.41;98650.34;5094913;28;20510;-70
2023/03/09 01:57:51;;;;;;;2.35;1.10;;;;;;;18.49;49.35;98649.38;5095218;28;20518;-69
2023/03/09 02:00:20;;;;;;;2.35;1.20;;;;;;;18.49;49.32;98654.69;5095157;28;20020;-67
2023/03/09 02:02:51;;;;;;;3.03;1.20;;;;;;;18.50;49.18;98651.09;5095054;28;20089;-69
2023/03/09 02:05:23;;;;;;;1.85;1.00;;;;;;;18.49;49.48;98649.38;5095219;28;20028;-69
2023/03/09 02:07:50;;;;;;;2.85;1.20;;;;;;;18.50;49.11;98651.09;5094819;28;20107;-69
2023/03/09 02:10:26;;;;;;;3.45;1.33;;;;;;;18.50;49.15;98640.50;5094563;28;20107;-69
2023/03/09 02:12:54;;;;;;;;;;;;;;;18.50;49.46;98637.88;5095392;28;20032;-70
2023/03/09 02:15:21;;;;;;;1.73;0.98;;;;;;;18.51;49.27;98652.78;5094552;28;19918;-66
2023/03/09 02:17:48;;;;;;;3.45;1.27;;;;;;;18.49;49.33;98648.53;5094372;28;20052;-68
2023/03/09 02:20:31;;;;;;;2.22;1.20;;;;;;;18.48;49.36;98637.13;5094720;28;20027;-68
2023/03/09 02:22:57;;;;;;;2.10;1.00;;;;;;;18.48;49.33;98641.56;5094127;28;20081;-68
2023/03/09 02:25:30;;;;;;;2.40;1.17;;;;;;;18.48;49.41;98642.41;5094662;28;20714;-69
2023/03/09 02:27:57;;;;;;;2.00;1.00;;;;;;;18.48;49.37;98631.84;5094611;28;20480;-69
2023/03/09 02:30:25;;;;;;;2.78;1.10;;;;;;;18.49;49.51;98638.81;5094655;28;20024;-69
2023/03/09 02:32:50;;;;;;;2.25;1.02;;;;;;;18.49;49.44;98648.53;5094608;28;20093;-70
2023/03/09 02:35:16;;;;;;;2.90;0.98;;;;;;;18.49;49.46;98644.09;5094576;28;20028;-69
2023/03/09 02:37:43;;;;;;;2.92;1.20;;;;;;;18.48;49.56;98637.13;5092858;28;20468;-69
2023/03/09 02:40:27;;;;;;;3.20;1.30;;;;;;;18.48;49.08;98625.69;5094610;28;20092;-70
2023/03/09 02:42:53;;;;;;;2.67;1.00;;;;;;;18.48;49.27;98628.34;5094432;28;20020;-68
2023/03/09 02:45:21;;;;;;;2.58;1.20;;;;;;;18.46;49.52;98623.16;5094492;28;20487;-69
2023/03/09 02:47:47;;;;;;;2.13;1.10;;;;;;;18.48;49.48;98616.00;5094025;28;20100;-69
2023/03/09 02:50:13;;;;;;;4.07;1.27;;;;;;;18.46;49.65;98617.03;5094028;28;20040;-69
2023/03/09 02:52:38;;;;;;;2.17;0.88;;;;;;;18.46;49.35;98617.88;5094016;28;20028;-69
2023/03/09 02:55:05;;;;;;;3.17;1.10;;;;;;;18.47;49.55;98613.44;5094096;28;20024;-69
2023/03/09 02:57:31;;;;;;;3.88;1.15;;;;;;;18.44;49.64;98617.13;5094062;28;20059;-68
2023/03/09 02:59:57;;;;;;;2.28;1.10;;;;;;;18.46;49.19;98627.59;5093941;28;20016;-69
2023/03/09 03:02:22;;;;;;;2.53;1.08;;;;;;;18.46;49.44;98632.88;5093892;28;20020;-68
2023/03/09 03:04:48;;;;;;;2.58;1.08;;;;;;;18.46;49.65;98633.72;5093720;28;20472;-69
2023/03/09 03:07:13;;;;;;;3.90;1.20;;;;;;;18.47;49.18;98656.56;5093581;28;20024;-68
2023/03/09 03:09:38;;;;;;;2.00;1.02;;;;;;;18.46;49.69;98670.69;5093858;28;20024;-68
2023/03/09 03:12:04;;;;;;;3.38;0.98;;;;;;;18.46;49.44;98670.69;5093759;28;20028;-67
2023/03/09 03:14:30;;;;;;;1.95;0.90;;;;;;;18.45;49.49;98654.97;5092567;28;20024;-69
2023/03/09 03:16:55;;;;;;;3.60;1.30;;;;;;;18.45;49.68;98652.34;5093614;28;20426;-69
2023/03/09 03:19:21;;;;;;;3.42;1.10;;;;;;;18.45;49.58;98647.88;5093701;28;20037;-70
2023/03/09 03:21:48;;;;;;;2.38;1.13;;;;;;;18.45;49.40;98645.25;5092163;28;20020;-68
2023/03/09 03:24:14;;;;;;;3.90;1.15;;;;;;;18.45;49.59;98637.31;5093712;28;20040;-68
2023/03/09 03:26:39;;;;;;;2.67;1.20;;;;;;;18.46;49.62;98617.88;5093454;28;20020;-68
2023/03/09 03:29:05;;;;;;;2.28;1.08;;;;;;;18.44;49.39;98614.50;5092368;28;20016;-69
2023/03/09 03:31:30;;;;;;;3.08;1.23;;;;;;;18.46;49.63;98619.69;5093283;28;20031;-69
2023/03/09 03:33:55;;;;;;;3.05;1.33;;;;;;;18.45;49.59;98625.91;5093030;28;20020;-70
2023/03/09 03:36:21;;;;;;;3.65;1.50;;;;;;;18.44;49.42;98625.06;5093115;28;20387;-69
2023/03/09 03:38:46;;;;;;;2.22;0.98;;;;;;;18.42;49.69;98624.31;5093194;28;20034;-69
2023/03/09 03:41:12;;;;;;;3.03;1.05;;;;;;;18.44;49.63;98627.69;5093213;28;20567;-70
2023/03/09 03:43:37;;;;;;;2.35;1.02;;;;;;;18.45;49.31;98625.91;5092514;28;20044;-70
2023/03/09 03:46:03;;;;;;;4.47;1.40;;;;;;;18.44;49.67;98616.31;5093035;28;20028;-69
2023/03/09 03:48:28;;;;;;;3.50;1.30;;;;;;;18.43;49.68;98612.81;5093102;28;20051;-69
2023/03/09 03:50:54;;;;;;;3.17;1.35;;;;;;;18.43;49.41;98617.22;5092336;28;20051;-69
2023/03/09 03:53:19;;;;;;;2.22;0.90;;;;;;;18.43;49.41;98611.94;5092833;28;20463;-68
2023/03/09 03:55:44;;;;;;;2.55;1.00;;;;;;;18.44;49.31;98614.50;5091362;28;20491;-69
2023/03/09 03:58:10;;;;;;;2.88;1.27;;;;;;;18.42;49.68;98604.97;5092855;28;20024;-70
2023/03/09 04:00:35;;;;;;;4.07;1.13;;;;;;;18.42;49.65;98611.09;5092733;28;20028;-69
2023/03/09 04:03:01;;;;;;;2.60;1.05;;;;;;;18.43;49.32;98611.94;5092406;28;20016;-69
2023/03/09 04:05:26;;;;;;;4.53;1.60;;;;;;;18.42;49.32;98615.53;5092497;28;20027;-69
2023/03/09 04:07:52;;;;;;;2.42;0.80;;;;;;;18.42;49.54;98611.09;5092511;28;20032;-70
2023/03/09 04:10:18;;;;;;;2.13;1.00;;;;;;;18.42;49.65;98610.25;5092748;28;20028;-70
2023/03/09 04:12:43;;;;;;;3.38;1.08;;;;;;;18.42;49.29;98610.25;5092678;28;20099;-69
2023/03/09 04:15:10;;;;;;;3.78;1.10;;;;;;;18.40;49.48;98602.41;5092475;28;20716;-70
2023/03/09 04:17:35;;;;;;;3.50;1.20;;;;;;;18.41;49.26;98609.41;5092593;28;20035;-69
2023/03/09 04:20:01;;;;;;;2.63;1.23;;;;;;;18.41;49.34;98593.56;5092200;28;20468;-70
2023/03/09 04:22:26;;;;;;;1.60;0.70;;;;;;;18.41;49.42;98588.28;5092351;28;20036;-68
2023/03/09 04:24:51;;;;;;;2.22;1.33;;;;;;;18.41;49.63;98593.56;5090903;28;20024;-69
2023/03/09 04:27:17;;;;;;;2.80;1.02;;;;;;;18.40;49.77;98597.13;5092324;28;20472;-69
2023/03/09 04:29:43;;;;;;;2.53;1.00;;;;;;;18.40;49.54;98602.41;5092447;28;20028;-69
2023/03/09 04:32:08;;;;;;;4.45;1.23;;;;;;;18.40;49.59;98615.63;5092149;28;20575;-69
2023/03/09 04:34:33;;;;;;;2.30;1.27;;;;;;;18.39;49.55;98619.22;5091768;28;20016;-67
2023/03/09 04:36:59;;;;;;;2.35;1.10;;;;;;;18.39;49.68;98632.41;5092029;28;20024;-69
2023/03/09 04:39:25;;;;;;;2.53;1.00;;;;;;;18.37;49.65;98629.88;5092269;28;20024;-71
2023/03/09 04:41:50;;;;;;;2.47;1.10;;;;;;;18.40;49.61;98617.44;5092217;28;20492;-70
2023/03/09 04:44:15;;;;;;;2.35;1.13;;;;;;;18.38;49.47;98621.03;5090642;28;20020;-69
2023/03/09 04:46:41;;;;;;;2.63;1.00;;;;;;;18.38;49.41;98625.44;5092173;28;20100;-70
2023/03/09 04:49:06;;;;;;;3.35;1.20;;;;;;;18.37;49.58;98624.59;5091561;28;20024;-68
2023/03/09 04:51:32;;;;;;;2.38;0.98;;;;;;;18.38;49.65;98625.44;5092098;28;20161;-69
2023/03/09 04:53:57;;;;;;;3.28;1.20;;;;;;;18.37;49.66;98613.19;5091998;28;20052;-69
2023/03/09 04:56:23;;;;;;;1.90;0.80;;;;;;;18.38;49.71;98599.03;5092157;28;20464;-69
2023/03/09 04:58:48;;;;;;;2.90;0.90;;;;;;;18.38;49.51;98620.16;5092121;28;20028;-70
2023/03/09 05:01:14;;;;;;;2.50;1.00;;;;;;;18.36;49.51;98630.00;5091948;28;20020;-69
2023/03/09 05:03:40;;;;;;;2.47;0.93;;;;;;;18.36;49.51;98627.34;5092090;28;20399;-70
2023/03/09 05:06:06;;;;;;;2.05;0.90;;;;;;;18.37;49.54;98629.88;5090755;28;20028;-69
2023/03/09 05:08:31;;;;;;;2.55;0.90;;;;;;;18.37;49.48;98629.03;5091869;28;20052;-69
2023/03/09 05:10:56;;;;;;;3.00;1.05;;;;;;;18.33;49.67;98614.31;5091922;28;20020;-69
2023/03/09 05:13:23;;;;;;;3.42;1.30;;;;;;;18.35;49.69;98629.13;5091878;28;20032;-70
2023/03/09 05:15:48;;;;;;;2.70;1.20;;;;;;;18.36;49.62;98633.47;5091873;28;20028;-68
2023/03/09 05:18:14;;;;;;;3.88;1.02;;;;;;;18.36;49.71;98633.47;5091362;28;20538;-70
2023/03/09 05:20:39;;;;;;;2.70;0.98;;;;;;;18.34;49.72;98623.94;5091916;28;20027;-69
2023/03/09 05:23:05;;;;;;;2.20;0.90;;;;;;;18.34;49.86;98613.38;5096737;28;20085;-69
2023/03/09 05:25:32;;;;;;;3.30;1.08;;;;;;;18.31;49.37;98597.75;5104336;28;20028;-69
2023/03/09 05:27:57;;;;;;;3.58;1.05;;;;;;;18.33;49.96;98590.56;5095336;28;20487;-69
2023/03/09 05:30:22;;;;;;;3.65;1.42;;;;;;;18.33;49.85;98586.13;5101236;28;20056;-68
2023/03/09 05:32:51;;;;;;;5.50;1.30;;;;;;;18.30;49.70;98599.50;5101999;28;20020;-70
2023/03/09 05:35:20;;;;;;;3.67;1.48;;;;;;;18.30;50.04;98603.97;5097982;28;20027;-69
2023/03/09 05:37:45;;;;;;;4.00;1.33;;;;;;;18.30;49.82;98612.72;5099748;28;20024;-69
2023/03/09 05:40:13;;;;;;;4.40;1.35;;;;;;;18.30;49.79;98607.44;5091573;28;20043;-69
2023/03/09 05:42:39;;;;;;;3.83;1.40;;;;;;;18.28;50.14;98603.19;5091704;28;20069;-69
2023/03/09 05:45:05;;;;;;;4.25;1.33;;;;;;;18.28;50.12;98603.19;5091613;28;20031;-69
2023/03/09 05:47:31;;;;;;;4.15;1.67;;;;;;;18.30;50.49;98596.03;5091003;28;20024;-69
2023/03/09 05:49:57;;;;;;;4.13;1.75;;;;;;;18.29;50.19;98594.31;5091476;28;20051;-69
2023/03/09 05:52:22;;;;;;;3.70;1.30;;;;;;;18.32;50.11;98592.38;5092606;28;20028;-68
2023/03/09 05:54:51;;;;;;;5.97;1.88;;;;;;;18.31;50.65;98587.16;5095217;28;20148;-69
2023/03/09 05:57:16;;;;;;;6.25;1.45;;;;;;;18.32;50.45;98588.88;5095018;28;20072;-69
2023/03/09 05:59:42;;;;;;;4.53;1.50;;;;;;;18.33;50.43;98598.47;5095226;28;20106;-68
2023/03/09 06:02:08;;;;;;;3.25;1.50;;;;;;;18.33;50.60;98587.91;5094281;28;20038;-69
2023/03/09 06:04:34;;;;;;;4.10;1.20;;;;;;;18.31;50.72;98595.09;5094960;28;20015;-72
2023/03/09 06:06:59;;;;;;;4.15;1.40;;;;;;;18.28;51.24;98597.91;5093659;28;20032;-71
2023/03/09 06:09:25;;;;;;;3.90;1.60;;;;;;;18.29;51.01;98607.53;5096848;28;20103;-72
2023/03/09 06:11:51;;;;;;;6.82;2.13;;;;;;;18.32;51.26;98604.72;5094667;28;20020;-72
2023/03/09 06:14:16;;;;;;;6.60;2.17;;;;;;;18.35;50.56;98613.28;5094127;28;20089;-75
2023/03/09 06:16:42;;;;;;;4.85;1.67;;;;;;;18.38;50.57;98617.53;5092860;28;20020;-72
2023/03/09 06:19:07;;;;;;;5.40;1.70;;;;;;;18.38;50.39;98609.59;5094463;28;20391;-72
2023/03/09 06:21:33;;;;;;;6.15;1.55;;;;;;;18.38;50.64;98614.88;5094674;28;20480;-73
2023/03/09 06:23:58;;;;;;;4.13;1.45;;;;;;;18.38;50.97;98604.31;5094575;28;20093;-72
2023/03/09 06:26:25;;;;;;;3.90;1.63;;;;;;;18.38;50.58;98609.59;5094595;28;20430;-72
2023/03/09 06:28:50;;;;;;;4.28;1.55;;;;;;;18.38;50.71;98610.47;5094149;28;20028;-72
2023/03/09 06:31:17;;;;;;;6.45;1.90;;;;;;;18.40;50.44;98612.97;5093819;28;20089;-73
2023/03/09 06:33:45;;;;;;;4.75;1.30;;;;;;;18.39;51.01;98621.84;5094259;28;20032;-72
2023/03/09 06:36:13;;;;;;;5.10;1.70;;;;;;;18.41;50.83;98617.34;5094309;28;20032;-72
2023/03/09 06:38:39;;;;;;;5.13;1.65;;;;;;;18.41;50.72;98612.06;5094374;28;20035;-73
2023/03/09 06:41:04;;;;;;;3.53;1.30;;;;;;;18.41;50.57;98613.84;5094373;28;20373;-73
2023/03/09 06:43:30;;;;;;;4.55;1.70;;;;;;;18.41;50.92;98613.84;5094259;28;20115;-72
2023/03/09 06:45:56;;;;;;;4.20;1.70;;;;;;;18.42;50.65;98615.53;5094101;28;20384;-72
2023/03/09 06:48:22;;;;;;;6.13;1.95;;;;;;;18.43;50.42;98606.66;5094332;28;20024;-72
2023/03/09 06:50:48;;;;;;;5.55;2.30;;;;;;;18.43;50.54;98618.09;5094229;28;20565;-72
2023/03/09 06:53:14;;;;;;;5.22;1.80;;;;;;;18.42;50.68;98624.31;5094830;28;20024;-72
2023/03/09 06:55:39;;;;;;;5.18;1.85;;;;;;;18.42;50.71;98626.97;5094961;28;20389;-71
2023/03/09 06:58:06;;;;;;;5.05;2.10;;;;;;;18.43;50.51;98620.72;5094678;28;20365;-72
2023/03/09 07:00:31;;;;;;;5.40;1.95;;;;;;;18.42;50.43;98620.81;5094260;28;20092;-72
2023/03/09 07:02:57;;;;;;;4.90;1.85;;;;;;;18.42;50.26;98613.75;5094120;28;20488;-72
2023/03/09 07:05:23;;;;;;;5.32;1.83;;;;;;;18.40;50.43;98612.97;5093013;28;20395;-71
2023/03/09 07:07:49;;;;;;;3.30;1.58;;;;;;;18.41;50.36;98609.41;5093903;28;20024;-72
2023/03/09 07:10:15;;;;;;;5.05;1.65;;;;;;;18.42;50.27;98620.81;5093875;28;20024;-71
2023/03/09 07:12:41;;;;;;;4.88;1.67;;;;;;;18.41;50.53;98622.63;5093578;28;20081;-72
2023/03/09 07:15:07;;;;;;;4.30;1.65;;;;;;;18.42;50.29;98612.88;5093437;28;20023;-73
2023/03/09 07:17:33;;;;;;;4.22;1.85;;;;;;;18.43;50.16;98615.44;5093713;28;20027;-71
2023/03/09 07:19:58;;;;;;;5.22;1.58;;;;;;;18.41;50.49;98614.69;5093193;28;20016;-70
2023/03/09 07:22:24;;;;;;;5.57;1.90;;;;;;;18.39;50.42;98600.72;5093295;28;20020;-71
2023/03/09 07:24:49;;;;;;;5.32;1.67;;;;;;;18.41;50.66;98604.13;5093568;28;20024;-72
2023/03/09 07:27:15;;;;;;;4.85;1.67;;;;;;;18.40;50.40;98612.16;5093317;28;20048;-71
2023/03/09 07:29:41;;;;;;;3.97;1.60;;;;;;;18.39;50.73;98611.28;5093027;28;20024;-73
2023/03/09 07:32:07;;;;;;;5.30;1.58;;;;;;;18.39;50.59;98611.28;5093155;28;20020;-72
2023/03/09 07:34:33;;;;;;;3.70;1.65;;;;;;;18.41;50.38;98608.56;5093365;28;20454;-72
2023/03/09 07:37:00;;;;;;;3.55;1.65;;;;;;;18.40;50.46;98606.88;5093372;28;20387;-72
2023/03/09 07:39:25;;;;;;;6.05;1.60;;;;;;;18.41;50.53;98608.56;5093371;28;20024;-72
2023/03/09 07:41:51;;;;;;;5.07;1.75;;;;;;;18.40;50.25;98606.88;5092973;28;20365;-73
2023/03/09 07:44:16;;;;;;;4.55;1.73;;;;;;;18.40;50.58;98612.16;5092754;28;20028;-71
2023/03/09 07:46:42;;;;;;;5.97;2.10;;;;;;;18.40;50.57;98607.69;5093144;28;20023;-71
2023/03/09 07:49:07;;;;;;;5.88;2.03;;;;;;;18.41;50.31;98604.13;5092825;28;20453;-71
2023/03/09 07:51:33;;;;;;;4.25;1.70;;;;;;;18.41;50.07;98604.13;5093174;28;20039;-71
2023/03/09 07:53:59;;;;;;;4.53;1.80;;;;;;;18.40;50.28;98597.13;5092971;28;20035;-71
2023/03/09 07:56:24;;;;;;;7.43;1.90;;;;;;;18.39;50.77;98595.44;5092506;28;20035;-70
2023/03/09 07:58:52;;;;;;;5.70;2.00;;;;;;;18.40;50.45;98597.13;5092853;28;20361;-72
2023/03/09 08:01:18;;;;;;;4.95;2.03;;;;;;;18.40;50.47;98597.13;5092763;28;20055;-72
2023/03/09 08:03:47;;;;;;;4.53;1.73;;;;;;;18.39;50.85;98595.44;5092520;28;20020;-71
2023/03/09 08:06:13;;;;;;;3.55;1.60;;;;;;;18.37;50.81;98592.06;5125729;27;20071;-70
2023/03/09 08:08:39;;;;;;;5.10;2.00;;;;;;;18.38;50.60;98593.75;5092678;28;20024;-72
2023/03/09 08:11:05;;;;;;;3.83;1.55;;;;;;;18.40;50.49;98598.94;5092425;28;20031;-72
2023/03/09 08:13:31;;;;;;;4.68;1.80;;;;;;;18.40;50.49;98596.31;5091234;28;20024;-72
2023/03/09 08:16:00;;;;;;;3.40;1.58;;;;;;;18.42;50.37;98599.69;5092088;28;20020;-71
2023/03/09 08:18:26;;;;;;;4.22;1.45;;;;;;;18.39;50.61;98595.44;5092495;28;20024;-72
2023/03/09 08:20:51;;;;;;;4.22;1.77;;;;;;;18.41;50.42;98593.56;5092525;28;20031;-72
2023/03/09 08:23:17;;;;;;;5.03;1.90;;;;;;;18.40;50.40;98586.56;5092406;28;20026;-72
2023/03/09 08:25:43;;;;;;;3.88;1.48;;;;;;;18.39;50.46;98595.44;5092160;28;20484;-72
2023/03/09 08:28:10;;;;;;;4.55;1.83;;;;;;;18.39;50.40;98595.44;5092539;28;20031;-72
2023/03/09 08:30:37;;;;;;;5.80;2.25;;;;;;;18.39;50.85;98600.72;5092470;28;20476;-71
2023/03/09 08:33:02;;;;;;;5.22;2.25;;;;;;;18.40;50.72;98601.59;5092213;28;20040;-74
2023/03/09 08:35:32;;;;;;;4.80;2.15;;;;;;;18.40;50.59;98602.41;5092354;28;20038;-72
2023/03/09 08:38:00;;;;;;;4.57;2.08;;;;;;;18.39;50.67;98608.66;5092203;28;20024;-72
2023/03/09 08:40:26;;;;;;;5.80;2.30;;;;;;;18.41;50.31;98604.13;5091828;28;20035;-73
2023/03/09 08:42:51;;;;;;;6.35;2.45;;;;;;;18.40;50.46;98601.59;5092152;28;20400;-74
2023/03/09 08:45:17;;;;;;;5.88;2.00;;;;;;;18.41;50.22;98603.28;5092134;28;20031;-72
2023/03/09 08:47:43;;;;;;;5.60;2.33;;;;;;;18.42;50.54;98605.81;5092259;28;20035;-73
2023/03/09 08:50:09;;;;;;;4.15;1.85;;;;;;;18.42;50.50;98599.69;5091952;28;20048;-73
2023/03/09 08:52:37;;;;;;;4.70;1.73;;;;;;;18.40;50.80;98607.69;5090794;28;20020;-73
2023/03/09 08:55:05;;;;;;;4.63;1.90;;;;;;;18.41;50.81;98603.28;5091604;28;20515;-73
2023/03/09 08:57:31;;;;;;;5.10;2.22;;;;;;;18.42;50.73;98599.69;5091932;28;20024;-71
2023/03/09 08:59:57;;;;;;;5.45;2.20;;;;;;;18.41;50.44;98604.13;5091844;28;20082;-72
2023/03/09 09:02:23;;;;;;;4.70;2.10;;;;;;;18.41;50.85;98604.13;5092134;28;20028;-73
2023/03/09 09:04:48;;;;;;;6.70;2.30;;;;;;;18.42;50.59;98600.53;5092944;28;20111;-72
2023/03/09 09:07:15;;;;;;;4.38;1.70;;;;;;;18.42;50.48;98589.13;5093528;28;20062;-72
2023/03/09 09:09:41;;;;;;;5.95;2.13;;;;;;;18.42;50.79;98615.53;5091959;28;20082;-72
2023/03/09 09:12:08;;;;;;;4.82;1.80;;;;;;;18.43;50.75;98622.50;5092107;28;20039;-73
2023/03/09 09:14:37;;;;;;;4.93;2.00;;;;;;;18.41;50.48;98619.97;5091790;28;20028;-72
2023/03/09 09:17:03;;;;;;;7.65;2.88;;;;;;;18.41;50.70;98598.84;5091725;28;20036;-72
2023/03/09 09:19:28;;;;;;;5.72;1.98;;;;;;;18.42;50.35;98600.53;5091817;28;20391;-72
2023/03/09 09:21:55;;;;;;;6.60;2.30;;;;;;;18.42;50.48;98603.19;5091769;28;20476;-72
2023/03/09 09:24:21;;;;;;;5.10;2.13;;;;;;;18.42;50.83;98597.91;5091438;28;20032;-74
2023/03/09 09:26:47;;;;;;;6.60;2.10;;;;;;;18.42;50.82;98597.91;5092076;28;20032;-71
2023/03/09 09:29:12;;;;;;;5.53;2.40;;;;;;;18.43;50.85;98596.94;5094076;28;20027;-73
2023/03/09 09:31:38;;;;;;;5.47;2.28;;;;;;;18.44;50.84;98590.72;5095500;28;20026;-73
2023/03/09 09:34:04;;;;;;;6.28;2.38;;;;;;;18.45;50.66;98595.03;5095597;28;20078;-72
2023/03/09 09:36:30;;;;;;;5.18;2.13;;;;;;;18.45;50.96;98602.97;5095646;28;20538;-73
2023/03/09 09:38:55;;;;;;;4.95;2.00;;;;;;;18.46;50.97;98601.19;5095238;28;20028;-73
2023/03/09 09:41:35;;;;;;;5.05;2.13;;;;;;;18.45;50.79;98600.31;5095412;28;20028;-72
2023/03/09 09:44:04;;;;;;;6.03;2.33;;;;;;;18.46;51.04;98604.66;5095648;28;20031;-72
2023/03/09 09:46:31;;;;;;;4.70;2.22;;;;;;;18.46;50.84;98590.63;5095403;28;20095;-72
2023/03/09 09:48:59;;;;;;;6.30;2.53;;;;;;;18.46;51.16;98588.81;5095342;28;20062;-72
2023/03/09 09:51:43;;;;;;;5.45;2.47;;;;;;;18.44;51.29;98593.34;5094630;28;20036;-72
2023/03/09 09:54:27;;;;;;;6.18;2.53;;;;;;;18.46;50.97;98590.63;5094823;28;20026;-72
2023/03/09 09:56:57;;;;;;;4.05;2.13;;;;;;;18.47;50.87;98603.75;5095080;28;20063;-73
2023/03/09 09:59:25;;;;;;;5.20;2.15;;;;;;;18.46;51.29;98612.59;5095075;28;20036;-72
2023/03/09 10:01:55;;;;;;;5.60;2.35;;;;;;;18.46;50.90;98604.66;5095165;28;20028;-72
2023/03/09 10:04:37;;;;;;;6.00;2.58;;;;;;;18.49;50.93;98590.41;5095089;28;20032;-72
2023/03/09 10:07:14;;;;;;;5.82;2.33;;;;;;;18.49;51.04;98577.19;5094701;28;20069;-72
2023/03/09 10:09:42;;;;;;;6.50;2.40;;;;;;;18.49;51.18;98575.41;5095063;28;20020;-72
2023/03/09 10:12:13;;;;;;;5.47;2.65;;;;;;;18.48;51.09;98571.09;5095010;28;20020;-72
2023/03/09 10:14:44;;;;;;;6.28;2.42;;;;;;;18.49;51.28;98580.69;5095078;28;20111;-72
2023/03/09 10:17:17;;;;;;;5.90;2.10;;;;;;;18.50;51.21;98571.00;5094737;28;20539;-72
2023/03/09 10:19:43;;;;;;;5.63;2.17;;;;;;;18.51;51.28;98562.94;5094798;28;20031;-73
2023/03/09 10:22:11;;;;;;;5.82;2.50;;;;;;;18.52;51.02;98559.38;5094470;28;20023;-72
2023/03/09 10:24:41;;;;;;;5.75;2.67;;;;;;;18.52;51.11;98564.66;5094681;28;20033;-72
2023/03/09 10:27:31;;;;;;;3.88;1.90;;;;;;;18.52;51.13;98559.38;5093299;28;20038;-73
2023/03/09 10:30:02;;;;;;;5.50;2.15;;;;;;;18.54;51.01;98561.91;5094572;28;20028;-72
2023/03/09 10:32:40;;;;;;;5.70;2.30;;;;;;;18.57;50.94;98560.84;5094483;28;20472;-72
2023/03/09 10:35:33;;;;;;;5.43;2.20;;;;;;;18.57;51.04;98566.13;5094406;28;20484;-73
2023/03/09 10:37:59;;;;;;;5.20;2.13;;;;;;;18.56;51.24;98564.44;5093902;28;20024;-72
2023/03/09 10:40:41;;;;;;;4.55;2.00;;;;;;;18.56;51.15;98562.69;5094327;28;20016;-72
2023/03/09 10:43:17;;;;;;;5.47;2.00;;;;;;;18.57;51.11;98566.13;5094575;28;20099;-72
2023/03/09 10:45:42;;;;;;;5.53;2.23;;;;;;;18.58;51.07;98549.34;5094158;28;20023;-73
2023/03/09 10:48:19;;;;;;;6.07;2.38;;;;;;;18.60;50.95;98550.09;5094918;28;20020;-72
2023/03/09 10:51:00;;;;;;;4.40;1.80;;;;;;;18.59;51.27;98548.41;5094168;28;20044;-73
2023/03/09 10:53:41;;;;;;;6.10;2.20;;;;;;;18.60;50.75;98544.81;5093657;28;20158;-73
2023/03/09 10:56:23;;;;;;;5.68;2.70;;;;;;;18.61;51.20;98543.88;5093697;28;20028;-72
2023/03/09 10:59:22;;;;;;;5.65;2.28;;;;;;;18.63;50.98;98539.31;5093603;28;20475;-74
2023/03/09 11:01:54;;;;;;;6.32;2.53;;;;;;;18.62;50.86;98537.63;5065456;28;20093;-72
2023/03/09 11:04:27;;;;;;;6.90;2.40;;;;;;;18.62;50.92;98530.56;5105141;28;20091;-73
2023/03/09 11:06:54;;;;;;;6.07;2.47;;;;;;;18.65;50.94;98532.16;5109004;28;20027;-74
2023/03/09 11:09:45;;;;;;;5.13;2.38;;;;;;;18.64;50.91;98528.66;5115513;28;20030;-73
2023/03/09 11:12:23;;;;;;;5.18;2.00;;;;;;;18.64;50.63;98525.16;5096946;28;20026;-73
2023/03/09 11:15:00;;;;;;;4.78;2.15;;;;;;;18.65;50.82;98526.88;5094221;28;20488;-73
2023/03/09 11:17:32;;;;;;;4.90;1.95;;;;;;;18.65;50.81;98516.31;5095743;28;20020;-74
2023/03/09 11:20:34;;;;;;;4.65;1.95;;;;;;;18.68;50.61;98521.38;5095538;28;20392;-74
2023/03/09 11:23:02;;;;;;;6.22;2.25;;;;;;;18.66;50.59;98520.63;5032360;28;20429;-73
2023/03/09 11:25:39;;;;;;;4.82;1.92;;;;;;;18.67;50.56;98511.75;5014476;28;20429;-73
2023/03/09 11:28:30;;;;;;;5.10;2.13;;;;;;;18.67;50.89;98502.97;5030787;28;20442;-72
2023/03/09 11:30:56;;;;;;;7.13;2.40;;;;;;;18.68;50.99;98504.69;5031080;28;20103;-73
2023/03/09 11:33:24;;;;;;;6.55;2.13;;;;;;;18.68;50.93;98494.13;5031181;28;20117;-74
2023/03/09 11:36:00;;;;;;;5.13;1.63;;;;;;;18.68;50.73;98497.59;5029968;28;20513;-73